CFMGP CYRC-CYMU
Flight info
| Callsign | CFMGP |
|---|---|
| Flight time | 2h 6m |
| Altitude | 25000 |
| Route | OMTOL |
| Aircraft | B350/L-SBGRWY/S |
Departure
| Time | 2026-04-29 13:44 |
|---|---|
| Airport | Chicoutimi/Saint-Honoré Aerodrome (CYRC) |
Arrival
| Time | 2026-04-29 15:50 |
|---|---|
| Airport | Umiujaq Airport (CYMU) |
| Time | Latitude | Longitude | Altitude | Speed | Heading |
|---|---|---|---|---|---|
| 2026-04-29 13:19 | 48.51547 | -71.05286 | 549 ft | 0 kts | 283° |
| 2026-04-29 13:41 | 48.51565 | -71.05331 | 551 ft | 11 kts | 320° |
| 2026-04-29 13:41 | 48.51646 | -71.05358 | 551 ft | 13 kts | 0° |
| 2026-04-29 13:41 | 48.51729 | -71.05363 | 552 ft | 11 kts | 336° |
| 2026-04-29 13:41 | 48.51766 | -71.05484 | 552 ft | 15 kts | 286° |
| 2026-04-29 13:42 | 48.51791 | -71.05643 | 554 ft | 17 kts | 281° |
| 2026-04-29 13:42 | 48.51816 | -71.05828 | 550 ft | 19 kts | 282° |
| 2026-04-29 13:42 | 48.51853 | -71.06025 | 550 ft | 19 kts | 291° |
| 2026-04-29 13:42 | 48.51885 | -71.06151 | 548 ft | 18 kts | 288° |
| 2026-04-29 13:43 | 48.51893 | -71.06224 | 548 ft | 5 kts | 92° |
| 2026-04-29 13:43 | 48.51892 | -71.06217 | 548 ft | 0 kts | 101° |
| 2026-04-29 13:43 | 48.51784 | -71.05562 | 553 ft | 95 kts | 105° |
| 2026-04-29 13:44 | 48.51651 | -71.04819 | 648 ft | 122 kts | 104° |
| 2026-04-29 13:44 | 48.51416 | -71.03470 | 1109 ft | 138 kts | 98° |
| 2026-04-29 13:44 | 48.51639 | -71.02046 | 1619 ft | 154 kts | 58° |
| 2026-04-29 13:44 | 48.52580 | -71.01141 | 2013 ft | 175 kts | 9° |
| 2026-04-29 13:45 | 48.53748 | -71.01528 | 2510 ft | 176 kts | 319° |
| 2026-04-29 13:45 | 48.54545 | -71.02861 | 3082 ft | 169 kts | 298° |
| 2026-04-29 13:45 | 48.55278 | -71.04259 | 3650 ft | 172 kts | 306° |
| 2026-04-29 13:45 | 48.56230 | -71.05393 | 4230 ft | 177 kts | 321° |
| 2026-04-29 13:46 | 48.57355 | -71.06202 | 4790 ft | 181 kts | 331° |
| 2026-04-29 13:46 | 48.58567 | -71.06789 | 5333 ft | 184 kts | 336° |
| 2026-04-29 13:46 | 48.59820 | -71.07258 | 5848 ft | 187 kts | 339° |
| 2026-04-29 13:46 | 48.61104 | -71.07673 | 6357 ft | 190 kts | 340° |
| 2026-04-29 13:47 | 48.62410 | -71.08068 | 6836 ft | 192 kts | 341° |
| 2026-04-29 13:47 | 48.63730 | -71.08456 | 7307 ft | 195 kts | 341° |
| 2026-04-29 13:47 | 48.65057 | -71.08877 | 7794 ft | 193 kts | 333° |
| 2026-04-29 13:47 | 48.66014 | -71.10043 | 8298 ft | 170 kts | 284° |
| 2026-04-29 13:48 | 48.66079 | -71.11696 | 8810 ft | 156 kts | 250° |
| 2026-04-29 13:48 | 48.65712 | -71.13209 | 9296 ft | 154 kts | 234° |
| 2026-04-29 13:48 | 48.65047 | -71.14478 | 9810 ft | 155 kts | 227° |
| 2026-04-29 13:48 | 48.64321 | -71.15682 | 10357 ft | 151 kts | 226° |
| 2026-04-29 13:49 | 48.63636 | -71.16797 | 11000 ft | 143 kts | 226° |
| 2026-04-29 13:49 | 48.62970 | -71.17870 | 11616 ft | 139 kts | 227° |
| 2026-04-29 13:49 | 48.62312 | -71.18926 | 12135 ft | 141 kts | 227° |
| 2026-04-29 13:49 | 48.61637 | -71.20012 | 12637 ft | 143 kts | 227° |
| 2026-04-29 13:50 | 48.60950 | -71.21120 | 13152 ft | 145 kts | 228° |
| 2026-04-29 13:50 | 48.60260 | -71.22233 | 13691 ft | 146 kts | 228° |
| 2026-04-29 13:50 | 48.59561 | -71.23357 | 14185 ft | 147 kts | 227° |
| 2026-04-29 13:50 | 48.58946 | -71.24586 | 14668 ft | 148 kts | 245° |
| 2026-04-29 13:51 | 48.58747 | -71.26137 | 15143 ft | 154 kts | 262° |
| 2026-04-29 13:51 | 48.58738 | -71.27768 | 15621 ft | 156 kts | 263° |
| 2026-04-29 13:51 | 48.58725 | -71.29407 | 16114 ft | 157 kts | 262° |
| 2026-04-29 13:51 | 48.58696 | -71.31062 | 16616 ft | 158 kts | 261° |
| 2026-04-29 13:52 | 48.58650 | -71.32706 | 17109 ft | 159 kts | 260° |
| 2026-04-29 13:52 | 48.58594 | -71.34383 | 17605 ft | 160 kts | 259° |
| 2026-04-29 13:52 | 48.58532 | -71.36071 | 18105 ft | 161 kts | 259° |
| 2026-04-29 13:52 | 48.58467 | -71.37770 | 18548 ft | 162 kts | 259° |
| 2026-04-29 13:53 | 48.58401 | -71.39475 | 18984 ft | 163 kts | 259° |
| 2026-04-29 13:53 | 48.58333 | -71.41187 | 19420 ft | 163 kts | 259° |
| 2026-04-29 13:53 | 48.58265 | -71.42902 | 19852 ft | 164 kts | 259° |
| 2026-04-29 13:53 | 48.58197 | -71.44618 | 20271 ft | 164 kts | 259° |
| 2026-04-29 13:54 | 48.58126 | -71.46344 | 20701 ft | 165 kts | 259° |
| 2026-04-29 13:54 | 48.58057 | -71.48076 | 21116 ft | 165 kts | 259° |
| 2026-04-29 13:54 | 48.57988 | -71.49784 | 21523 ft | 166 kts | 259° |
| 2026-04-29 13:54 | 48.57917 | -71.51530 | 21943 ft | 166 kts | 259° |
| 2026-04-29 13:55 | 48.57845 | -71.53277 | 22369 ft | 167 kts | 259° |
| 2026-04-29 13:55 | 48.57775 | -71.55028 | 22826 ft | 167 kts | 259° |
| 2026-04-29 13:55 | 48.57703 | -71.56785 | 23274 ft | 168 kts | 259° |
| 2026-04-29 13:55 | 48.57630 | -71.58547 | 23671 ft | 169 kts | 259° |
| 2026-04-29 13:56 | 48.57555 | -71.60322 | 24030 ft | 170 kts | 259° |
| 2026-04-29 13:56 | 48.57481 | -71.62117 | 24383 ft | 172 kts | 259° |
| 2026-04-29 13:56 | 48.57404 | -71.63929 | 24735 ft | 173 kts | 259° |
| 2026-04-29 13:56 | 48.57327 | -71.65751 | 25092 ft | 175 kts | 259° |
| 2026-04-29 13:57 | 48.57251 | -71.67594 | 25434 ft | 176 kts | 259° |
| 2026-04-29 13:57 | 48.57172 | -71.69449 | 25790 ft | 178 kts | 259° |
| 2026-04-29 13:57 | 48.57086 | -71.71375 | 25895 ft | 192 kts | 259° |
| 2026-04-29 13:57 | 48.56992 | -71.73471 | 25912 ft | 208 kts | 259° |
| 2026-04-29 13:58 | 48.56896 | -71.75696 | 25916 ft | 221 kts | 260° |
| 2026-04-29 13:58 | 48.56795 | -71.78081 | 25915 ft | 232 kts | 261° |
| 2026-04-29 13:58 | 48.56690 | -71.80566 | 25914 ft | 242 kts | 261° |
| 2026-04-29 13:58 | 48.56580 | -71.83135 | 25911 ft | 249 kts | 261° |
| 2026-04-29 13:59 | 48.56466 | -71.85788 | 25912 ft | 255 kts | 261° |
| 2026-04-29 13:59 | 48.56348 | -71.88490 | 25909 ft | 260 kts | 261° |
| 2026-04-29 13:59 | 48.56230 | -71.91233 | 25908 ft | 264 kts | 261° |
| 2026-04-29 13:59 | 48.56108 | -71.94021 | 25909 ft | 267 kts | 261° |
| 2026-04-29 14:00 | 48.55984 | -71.96839 | 25910 ft | 270 kts | 261° |
| 2026-04-29 14:00 | 48.55858 | -71.99684 | 25905 ft | 272 kts | 261° |
| 2026-04-29 14:00 | 48.55731 | -72.02537 | 25923 ft | 273 kts | 261° |
| 2026-04-29 14:00 | 48.55605 | -72.05380 | 26058 ft | 270 kts | 261° |
| 2026-04-29 14:01 | 48.55479 | -72.08189 | 26185 ft | 267 kts | 261° |
| 2026-04-29 14:01 | 48.55352 | -72.10965 | 26313 ft | 266 kts | 261° |
| 2026-04-29 14:01 | 48.55225 | -72.13740 | 26443 ft | 264 kts | 261° |
| 2026-04-29 14:01 | 48.55098 | -72.16463 | 26571 ft | 263 kts | 261° |
| 2026-04-29 14:02 | 48.54970 | -72.19208 | 26697 ft | 262 kts | 261° |
| 2026-04-29 14:02 | 48.54841 | -72.21942 | 26823 ft | 260 kts | 261° |
| 2026-04-29 14:02 | 48.54713 | -72.24667 | 26953 ft | 259 kts | 261° |
| 2026-04-29 14:02 | 48.54746 | -72.27397 | 27091 ft | 264 kts | 273° |
| 2026-04-29 14:03 | 48.55269 | -72.30086 | 27231 ft | 272 kts | 288° |
| 2026-04-29 14:03 | 48.56306 | -72.32523 | 27371 ft | 281 kts | 303° |
| 2026-04-29 14:03 | 48.57608 | -72.34741 | 27498 ft | 282 kts | 303° |
| 2026-04-29 14:03 | 48.58900 | -72.36923 | 27635 ft | 282 kts | 304° |
| 2026-04-29 14:04 | 48.60208 | -72.39126 | 27765 ft | 281 kts | 303° |
| 2026-04-29 14:04 | 48.61516 | -72.41329 | 27879 ft | 282 kts | 303° |
| 2026-04-29 14:04 | 48.62834 | -72.43555 | 27890 ft | 285 kts | 303° |
| 2026-04-29 14:04 | 48.64166 | -72.45809 | 27889 ft | 288 kts | 303° |
| 2026-04-29 14:05 | 48.65510 | -72.48084 | 27906 ft | 291 kts | 304° |
| 2026-04-29 14:05 | 48.66864 | -72.50378 | 27908 ft | 294 kts | 304° |
| 2026-04-29 14:05 | 48.68229 | -72.52692 | 27905 ft | 295 kts | 304° |
| 2026-04-29 14:05 | 48.69600 | -72.55020 | 27898 ft | 297 kts | 304° |
| 2026-04-29 14:06 | 48.70979 | -72.57360 | 27895 ft | 298 kts | 304° |
| 2026-04-29 14:06 | 48.72341 | -72.59675 | 27897 ft | 297 kts | 304° |
| 2026-04-29 14:06 | 48.73715 | -72.62008 | 27905 ft | 296 kts | 303° |
| 2026-04-29 14:06 | 48.75080 | -72.64330 | 27899 ft | 295 kts | 303° |
| 2026-04-29 14:07 | 48.76442 | -72.66651 | 27902 ft | 294 kts | 303° |
| 2026-04-29 14:07 | 48.77799 | -72.68967 | 27900 ft | 293 kts | 303° |
| 2026-04-29 14:07 | 48.79149 | -72.71273 | 27901 ft | 292 kts | 303° |
| 2026-04-29 14:07 | 48.80500 | -72.73586 | 27897 ft | 292 kts | 303° |
| 2026-04-29 14:08 | 48.81843 | -72.75885 | 27902 ft | 291 kts | 303° |
| 2026-04-29 14:08 | 48.83187 | -72.78190 | 27892 ft | 291 kts | 303° |
| 2026-04-29 14:08 | 48.84532 | -72.80496 | 27891 ft | 291 kts | 303° |
| 2026-04-29 14:08 | 48.85874 | -72.82800 | 27896 ft | 291 kts | 303° |
| 2026-04-29 14:09 | 48.87199 | -72.85077 | 27894 ft | 291 kts | 303° |
| 2026-04-29 14:09 | 48.88538 | -72.87381 | 27898 ft | 291 kts | 303° |
| 2026-04-29 14:09 | 48.89878 | -72.89685 | 27896 ft | 291 kts | 303° |
| 2026-04-29 14:09 | 48.91215 | -72.91988 | 27896 ft | 291 kts | 303° |
| 2026-04-29 14:10 | 48.92555 | -72.94300 | 27897 ft | 291 kts | 303° |
| 2026-04-29 14:10 | 48.93891 | -72.96606 | 27899 ft | 291 kts | 303° |
| 2026-04-29 14:10 | 48.95228 | -72.98915 | 27897 ft | 291 kts | 303° |
| 2026-04-29 14:10 | 48.96562 | -73.01222 | 27902 ft | 291 kts | 303° |
| 2026-04-29 14:11 | 48.97899 | -73.03534 | 27901 ft | 291 kts | 303° |
| 2026-04-29 14:11 | 48.99237 | -73.05850 | 27896 ft | 291 kts | 303° |
| 2026-04-29 14:11 | 49.00571 | -73.08163 | 27900 ft | 291 kts | 303° |
| 2026-04-29 14:11 | 49.01892 | -73.10454 | 27902 ft | 291 kts | 303° |
| 2026-04-29 14:12 | 49.03230 | -73.12778 | 27896 ft | 291 kts | 303° |
| 2026-04-29 14:12 | 49.04567 | -73.15100 | 27900 ft | 291 kts | 303° |
| 2026-04-29 14:12 | 49.05902 | -73.17422 | 27898 ft | 291 kts | 303° |
| 2026-04-29 14:12 | 49.07237 | -73.19745 | 27900 ft | 291 kts | 303° |
| 2026-04-29 14:13 | 49.08570 | -73.22067 | 27903 ft | 291 kts | 303° |
| 2026-04-29 14:13 | 49.09902 | -73.24391 | 27907 ft | 291 kts | 303° |
| 2026-04-29 14:13 | 49.11235 | -73.26719 | 27898 ft | 291 kts | 303° |
| 2026-04-29 14:13 | 49.12567 | -73.29045 | 27896 ft | 291 kts | 303° |
| 2026-04-29 14:14 | 49.13895 | -73.31367 | 27900 ft | 290 kts | 303° |
| 2026-04-29 14:14 | 49.15208 | -73.33666 | 27897 ft | 290 kts | 303° |
| 2026-04-29 14:14 | 49.16537 | -73.35994 | 27900 ft | 290 kts | 303° |
| 2026-04-29 14:14 | 49.17865 | -73.38320 | 27899 ft | 290 kts | 303° |
| 2026-04-29 14:15 | 49.19189 | -73.40642 | 27894 ft | 290 kts | 303° |
| 2026-04-29 14:15 | 49.20511 | -73.42964 | 27901 ft | 290 kts | 303° |
| 2026-04-29 14:15 | 49.21835 | -73.45294 | 27899 ft | 289 kts | 303° |
| 2026-04-29 14:15 | 49.23159 | -73.47622 | 27904 ft | 290 kts | 303° |
| 2026-04-29 14:16 | 49.24490 | -73.49967 | 27899 ft | 292 kts | 303° |
| 2026-04-29 14:16 | 49.25828 | -73.52330 | 27900 ft | 295 kts | 303° |
| 2026-04-29 14:16 | 49.27157 | -73.54677 | 27904 ft | 296 kts | 303° |
| 2026-04-29 14:16 | 49.28512 | -73.57069 | 27899 ft | 298 kts | 303° |
| 2026-04-29 14:17 | 49.29871 | -73.59473 | 27900 ft | 299 kts | 303° |
| 2026-04-29 14:17 | 49.31218 | -73.61854 | 27902 ft | 300 kts | 303° |
| 2026-04-29 14:17 | 49.32602 | -73.64302 | 27906 ft | 300 kts | 303° |
| 2026-04-29 14:17 | 49.33971 | -73.66726 | 27903 ft | 301 kts | 303° |
| 2026-04-29 14:18 | 49.35342 | -73.69155 | 27905 ft | 301 kts | 303° |
| 2026-04-29 14:18 | 49.36716 | -73.71596 | 27900 ft | 302 kts | 303° |
| 2026-04-29 14:18 | 49.38088 | -73.74033 | 27902 ft | 302 kts | 303° |
| 2026-04-29 14:18 | 49.39462 | -73.76476 | 27904 ft | 302 kts | 303° |
| 2026-04-29 14:19 | 49.40834 | -73.78918 | 27908 ft | 302 kts | 303° |
| 2026-04-29 14:19 | 49.42190 | -73.81335 | 27907 ft | 302 kts | 303° |
| 2026-04-29 14:19 | 49.43561 | -73.83781 | 27905 ft | 302 kts | 303° |
| 2026-04-29 14:19 | 49.44936 | -73.86235 | 27905 ft | 303 kts | 303° |
| 2026-04-29 14:20 | 49.46327 | -73.88721 | 27903 ft | 303 kts | 303° |
| 2026-04-29 14:20 | 49.47700 | -73.91175 | 27905 ft | 302 kts | 303° |
| 2026-04-29 14:20 | 49.49054 | -73.93600 | 27905 ft | 302 kts | 303° |
| 2026-04-29 14:20 | 49.50422 | -73.96051 | 27901 ft | 302 kts | 303° |
| 2026-04-29 14:21 | 49.51792 | -73.98510 | 27913 ft | 302 kts | 303° |
| 2026-04-29 14:21 | 49.53161 | -74.00969 | 27909 ft | 303 kts | 302° |
| 2026-04-29 14:21 | 49.54533 | -74.03435 | 27909 ft | 303 kts | 303° |
| 2026-04-29 14:21 | 49.55901 | -74.05895 | 27912 ft | 303 kts | 302° |
| 2026-04-29 14:22 | 49.57273 | -74.08366 | 27904 ft | 303 kts | 302° |
| 2026-04-29 14:22 | 49.58640 | -74.10829 | 27900 ft | 303 kts | 302° |
| 2026-04-29 14:22 | 49.60007 | -74.13297 | 27896 ft | 302 kts | 302° |
| 2026-04-29 14:22 | 49.61374 | -74.15766 | 27899 ft | 302 kts | 302° |
| 2026-04-29 14:23 | 49.62738 | -74.18231 | 27894 ft | 302 kts | 302° |
| 2026-04-29 14:23 | 49.64103 | -74.20700 | 27894 ft | 302 kts | 302° |
| 2026-04-29 14:23 | 49.65469 | -74.23174 | 27890 ft | 302 kts | 302° |
| 2026-04-29 14:23 | 49.66833 | -74.25647 | 27886 ft | 302 kts | 302° |
| 2026-04-29 14:24 | 49.68196 | -74.28120 | 27882 ft | 302 kts | 302° |
| 2026-04-29 14:24 | 49.69536 | -74.30553 | 27879 ft | 302 kts | 302° |
| 2026-04-29 14:24 | 49.70913 | -74.33057 | 27880 ft | 302 kts | 302° |
| 2026-04-29 14:24 | 49.72274 | -74.35534 | 27875 ft | 302 kts | 302° |
| 2026-04-29 14:25 | 49.73613 | -74.37971 | 27874 ft | 302 kts | 302° |
| 2026-04-29 14:25 | 49.74967 | -74.40440 | 27873 ft | 301 kts | 302° |
| 2026-04-29 14:25 | 49.76324 | -74.42916 | 27874 ft | 301 kts | 302° |
| 2026-04-29 14:25 | 49.77683 | -74.45388 | 27874 ft | 302 kts | 303° |
| 2026-04-29 14:26 | 49.79247 | -74.47622 | 27877 ft | 311 kts | 315° |
| 2026-04-29 14:26 | 49.81146 | -74.49344 | 27874 ft | 322 kts | 328° |
| 2026-04-29 14:26 | 49.83308 | -74.50403 | 27874 ft | 332 kts | 342° |
| 2026-04-29 14:26 | 49.85603 | -74.50940 | 27869 ft | 333 kts | 344° |
| 2026-04-29 14:27 | 49.87888 | -74.51516 | 27875 ft | 333 kts | 343° |
| 2026-04-29 14:27 | 49.90170 | -74.52120 | 27877 ft | 333 kts | 343° |
| 2026-04-29 14:27 | 49.92456 | -74.52726 | 27878 ft | 333 kts | 343° |
| 2026-04-29 14:28 | 49.97022 | -74.53922 | 27884 ft | 333 kts | 343° |
| 2026-04-29 14:28 | 49.99310 | -74.54518 | 27883 ft | 333 kts | 343° |
| 2026-04-29 14:28 | 50.01569 | -74.55104 | 27890 ft | 333 kts | 343° |
| 2026-04-29 14:28 | 50.03855 | -74.55696 | 27893 ft | 333 kts | 343° |
| 2026-04-29 14:29 | 50.06144 | -74.56290 | 27896 ft | 333 kts | 343° |
| 2026-04-29 14:29 | 50.08434 | -74.56884 | 27894 ft | 333 kts | 343° |
| 2026-04-29 14:29 | 50.10724 | -74.57479 | 27891 ft | 333 kts | 342° |
| 2026-04-29 14:29 | 50.13010 | -74.58073 | 27894 ft | 333 kts | 342° |
| 2026-04-29 14:30 | 50.15299 | -74.58668 | 27896 ft | 333 kts | 342° |
| 2026-04-29 14:30 | 50.17588 | -74.59264 | 27895 ft | 333 kts | 342° |
| 2026-04-29 14:30 | 50.19879 | -74.59861 | 27896 ft | 333 kts | 342° |
| 2026-04-29 14:30 | 50.22169 | -74.60458 | 27892 ft | 333 kts | 342° |
| 2026-04-29 14:31 | 50.24454 | -74.61055 | 27894 ft | 333 kts | 342° |
| 2026-04-29 14:31 | 50.26745 | -74.61654 | 27893 ft | 333 kts | 342° |
| 2026-04-29 14:31 | 50.29003 | -74.62246 | 27893 ft | 333 kts | 342° |
| 2026-04-29 14:31 | 50.31292 | -74.62845 | 27893 ft | 333 kts | 342° |
| 2026-04-29 14:32 | 50.33586 | -74.63446 | 27890 ft | 333 kts | 342° |
| 2026-04-29 14:32 | 50.35871 | -74.64046 | 27889 ft | 333 kts | 342° |
| 2026-04-29 14:32 | 50.38156 | -74.64646 | 27889 ft | 333 kts | 342° |
| 2026-04-29 14:32 | 50.40441 | -74.65247 | 27887 ft | 333 kts | 342° |
| 2026-04-29 14:33 | 50.42731 | -74.65850 | 27890 ft | 333 kts | 342° |
| 2026-04-29 14:33 | 50.45012 | -74.66451 | 27884 ft | 333 kts | 342° |
| 2026-04-29 14:33 | 50.46530 | -74.66851 | 27886 ft | 333 kts | 342° |
| 2026-04-29 14:33 | 50.48821 | -74.67456 | 27886 ft | 333 kts | 342° |
| 2026-04-29 14:34 | 50.51107 | -74.68060 | 27884 ft | 333 kts | 341° |
| 2026-04-29 14:34 | 50.53398 | -74.68666 | 27883 ft | 333 kts | 341° |
| 2026-04-29 14:34 | 50.55687 | -74.69271 | 27885 ft | 333 kts | 341° |
| 2026-04-29 14:34 | 50.57976 | -74.69878 | 27884 ft | 333 kts | 341° |
| 2026-04-29 14:35 | 50.60264 | -74.70484 | 27880 ft | 333 kts | 341° |
| 2026-04-29 14:35 | 50.62550 | -74.71092 | 27877 ft | 333 kts | 341° |
| 2026-04-29 14:35 | 50.64811 | -74.71692 | 27880 ft | 333 kts | 341° |
| 2026-04-29 14:35 | 50.67101 | -74.72302 | 27878 ft | 333 kts | 341° |
| 2026-04-29 14:36 | 50.69389 | -74.72912 | 27875 ft | 334 kts | 341° |
| 2026-04-29 14:36 | 50.71679 | -74.73522 | 27874 ft | 334 kts | 341° |
| 2026-04-29 14:36 | 50.73971 | -74.74134 | 27876 ft | 334 kts | 341° |
| 2026-04-29 14:36 | 50.76260 | -74.74745 | 27873 ft | 334 kts | 341° |
| 2026-04-29 14:37 | 50.78550 | -74.75357 | 27875 ft | 334 kts | 341° |
| 2026-04-29 14:37 | 50.80849 | -74.75972 | 27871 ft | 334 kts | 341° |
| 2026-04-29 14:37 | 50.83141 | -74.76586 | 27869 ft | 334 kts | 341° |
| 2026-04-29 14:37 | 50.85433 | -74.77201 | 27866 ft | 335 kts | 341° |
| 2026-04-29 14:38 | 50.87731 | -74.77817 | 27864 ft | 335 kts | 341° |
| 2026-04-29 14:38 | 50.90001 | -74.78427 | 27865 ft | 335 kts | 341° |
| 2026-04-29 14:38 | 50.92299 | -74.79045 | 27862 ft | 335 kts | 341° |
| 2026-04-29 14:38 | 50.94597 | -74.79664 | 27860 ft | 335 kts | 341° |
| 2026-04-29 14:39 | 50.96899 | -74.80284 | 27855 ft | 335 kts | 341° |
| 2026-04-29 14:39 | 50.99196 | -74.80903 | 27858 ft | 335 kts | 341° |
| 2026-04-29 14:39 | 51.01491 | -74.81522 | 27855 ft | 335 kts | 341° |
| 2026-04-29 14:39 | 51.03787 | -74.82142 | 27853 ft | 335 kts | 341° |
| 2026-04-29 14:40 | 51.06083 | -74.82763 | 27850 ft | 335 kts | 341° |
| 2026-04-29 14:40 | 51.08377 | -74.83385 | 27848 ft | 334 kts | 342° |
| 2026-04-29 14:40 | 51.10676 | -74.84008 | 27846 ft | 334 kts | 342° |
| 2026-04-29 14:40 | 51.12960 | -74.84627 | 27845 ft | 334 kts | 342° |
| 2026-04-29 14:41 | 51.15231 | -74.85244 | 27848 ft | 333 kts | 342° |
| 2026-04-29 14:41 | 51.17519 | -74.85866 | 27842 ft | 333 kts | 342° |
| 2026-04-29 14:41 | 51.19804 | -74.86488 | 27844 ft | 333 kts | 342° |
| 2026-04-29 14:41 | 51.22086 | -74.87110 | 27837 ft | 333 kts | 342° |
| 2026-04-29 14:42 | 51.24368 | -74.87733 | 27838 ft | 332 kts | 343° |
| 2026-04-29 14:42 | 51.26645 | -74.88354 | 27834 ft | 332 kts | 343° |
| 2026-04-29 14:42 | 51.28920 | -74.88976 | 27835 ft | 332 kts | 343° |
| 2026-04-29 14:42 | 51.31203 | -74.89601 | 27835 ft | 332 kts | 343° |
| 2026-04-29 14:43 | 51.33478 | -74.90223 | 27825 ft | 331 kts | 343° |
| 2026-04-29 14:43 | 51.35723 | -74.90839 | 27832 ft | 331 kts | 343° |
| 2026-04-29 14:43 | 51.37990 | -74.91461 | 27829 ft | 331 kts | 344° |
| 2026-04-29 14:43 | 51.40257 | -74.92083 | 27826 ft | 330 kts | 344° |
| 2026-04-29 14:44 | 51.42519 | -74.92705 | 27820 ft | 330 kts | 344° |
| 2026-04-29 14:44 | 51.44789 | -74.93329 | 27823 ft | 330 kts | 344° |
| 2026-04-29 14:44 | 51.47050 | -74.93953 | 27825 ft | 329 kts | 344° |
| 2026-04-29 14:44 | 51.49312 | -74.94577 | 27818 ft | 329 kts | 344° |
| 2026-04-29 14:45 | 51.51543 | -74.95193 | 27817 ft | 329 kts | 345° |
| 2026-04-29 14:45 | 51.53795 | -74.95815 | 27815 ft | 329 kts | 345° |
| 2026-04-29 14:45 | 51.56051 | -74.96439 | 27815 ft | 328 kts | 345° |
| 2026-04-29 14:45 | 51.58304 | -74.97063 | 27811 ft | 328 kts | 345° |
| 2026-04-29 14:46 | 51.60553 | -74.97687 | 27810 ft | 328 kts | 345° |
| 2026-04-29 14:46 | 51.62806 | -74.98312 | 27808 ft | 328 kts | 345° |
| 2026-04-29 14:46 | 51.65058 | -74.98937 | 27807 ft | 328 kts | 345° |
| 2026-04-29 14:46 | 51.67306 | -74.99563 | 27802 ft | 328 kts | 345° |
| 2026-04-29 14:47 | 51.69557 | -75.00190 | 27802 ft | 327 kts | 345° |
| 2026-04-29 14:47 | 51.71776 | -75.00808 | 27803 ft | 327 kts | 345° |
| 2026-04-29 14:47 | 51.74054 | -75.01443 | 27800 ft | 327 kts | 345° |
| 2026-04-29 14:47 | 51.76267 | -75.02060 | 27793 ft | 327 kts | 345° |
| 2026-04-29 14:48 | 51.78541 | -75.02695 | 27792 ft | 327 kts | 345° |
| 2026-04-29 14:48 | 51.80755 | -75.03314 | 27794 ft | 327 kts | 345° |
| 2026-04-29 14:48 | 51.83000 | -75.03943 | 27793 ft | 327 kts | 345° |
| 2026-04-29 14:48 | 51.85246 | -75.04572 | 27787 ft | 327 kts | 345° |
| 2026-04-29 14:49 | 51.87490 | -75.05202 | 27786 ft | 327 kts | 345° |
| 2026-04-29 14:49 | 51.89732 | -75.05831 | 27786 ft | 327 kts | 345° |
| 2026-04-29 14:49 | 51.91980 | -75.06464 | 27784 ft | 327 kts | 345° |
| 2026-04-29 14:49 | 51.94219 | -75.07094 | 27782 ft | 327 kts | 345° |
| 2026-04-29 14:50 | 51.96464 | -75.07726 | 27780 ft | 327 kts | 345° |
| 2026-04-29 14:50 | 51.98673 | -75.08349 | 27777 ft | 327 kts | 345° |
| 2026-04-29 14:50 | 52.00952 | -75.08992 | 27771 ft | 327 kts | 345° |
| 2026-04-29 14:50 | 52.03159 | -75.09616 | 27774 ft | 327 kts | 345° |
| 2026-04-29 14:51 | 52.05402 | -75.10251 | 27770 ft | 327 kts | 345° |
| 2026-04-29 14:51 | 52.07645 | -75.10886 | 27770 ft | 327 kts | 345° |
| 2026-04-29 14:51 | 52.09888 | -75.11521 | 27765 ft | 327 kts | 345° |
| 2026-04-29 14:51 | 52.12134 | -75.12158 | 27762 ft | 327 kts | 345° |
| 2026-04-29 14:52 | 52.14374 | -75.12794 | 27760 ft | 327 kts | 345° |
| 2026-04-29 14:52 | 52.16614 | -75.13431 | 27759 ft | 327 kts | 345° |
| 2026-04-29 14:52 | 52.18827 | -75.14061 | 27754 ft | 327 kts | 345° |
| 2026-04-29 14:52 | 52.21067 | -75.14699 | 27751 ft | 326 kts | 345° |
| 2026-04-29 14:53 | 52.23307 | -75.15338 | 27754 ft | 327 kts | 345° |
| 2026-04-29 14:53 | 52.25544 | -75.15976 | 27755 ft | 327 kts | 345° |
| 2026-04-29 14:53 | 52.27797 | -75.16620 | 27741 ft | 327 kts | 345° |
| 2026-04-29 14:53 | 52.30043 | -75.17262 | 27741 ft | 327 kts | 345° |
| 2026-04-29 14:54 | 52.32286 | -75.17904 | 27738 ft | 327 kts | 345° |
| 2026-04-29 14:54 | 52.34521 | -75.18544 | 27741 ft | 327 kts | 345° |
| 2026-04-29 14:54 | 52.36762 | -75.19187 | 27738 ft | 326 kts | 345° |
| 2026-04-29 14:54 | 52.39000 | -75.19830 | 27735 ft | 326 kts | 345° |
| 2026-04-29 14:55 | 52.41237 | -75.20473 | 27733 ft | 326 kts | 345° |
| 2026-04-29 14:55 | 52.43474 | -75.21118 | 27732 ft | 326 kts | 345° |
| 2026-04-29 14:55 | 52.45706 | -75.21761 | 27726 ft | 326 kts | 345° |
| 2026-04-29 14:55 | 52.47942 | -75.22405 | 27724 ft | 326 kts | 345° |
| 2026-04-29 14:56 | 52.50143 | -75.23040 | 27724 ft | 326 kts | 345° |
| 2026-04-29 14:56 | 52.52376 | -75.23686 | 27721 ft | 326 kts | 345° |
| 2026-04-29 14:56 | 52.54606 | -75.24331 | 27718 ft | 326 kts | 345° |
| 2026-04-29 14:56 | 52.56844 | -75.24979 | 27715 ft | 326 kts | 345° |
| 2026-04-29 14:57 | 52.59069 | -75.25624 | 27718 ft | 325 kts | 345° |
| 2026-04-29 14:57 | 52.61299 | -75.26271 | 27714 ft | 325 kts | 345° |
| 2026-04-29 14:57 | 52.63531 | -75.26920 | 27711 ft | 326 kts | 345° |
| 2026-04-29 14:57 | 52.65761 | -75.27569 | 27706 ft | 326 kts | 345° |
| 2026-04-29 14:58 | 52.68000 | -75.28220 | 27701 ft | 325 kts | 345° |
| 2026-04-29 14:58 | 52.70231 | -75.28870 | 27697 ft | 325 kts | 345° |
| 2026-04-29 14:58 | 52.72455 | -75.29518 | 27695 ft | 325 kts | 345° |
| 2026-04-29 14:58 | 52.74685 | -75.30169 | 27693 ft | 325 kts | 345° |
| 2026-04-29 14:59 | 52.76913 | -75.30821 | 27690 ft | 325 kts | 345° |
| 2026-04-29 14:59 | 52.79149 | -75.31465 | 27693 ft | 325 kts | 345° |
| 2026-04-29 14:59 | 52.81385 | -75.32089 | 27686 ft | 325 kts | 346° |
| 2026-04-29 14:59 | 52.83616 | -75.32707 | 27683 ft | 325 kts | 346° |
| 2026-04-29 15:00 | 52.85849 | -75.33327 | 27685 ft | 325 kts | 346° |
| 2026-04-29 15:00 | 52.88058 | -75.33942 | 27681 ft | 325 kts | 346° |
| 2026-04-29 15:00 | 52.90289 | -75.34565 | 27677 ft | 325 kts | 346° |
| 2026-04-29 15:00 | 52.92518 | -75.35190 | 27679 ft | 325 kts | 346° |
| 2026-04-29 15:01 | 52.94751 | -75.35816 | 27678 ft | 325 kts | 346° |
| 2026-04-29 15:01 | 52.96985 | -75.36446 | 27673 ft | 326 kts | 346° |
| 2026-04-29 15:01 | 52.99219 | -75.37076 | 27664 ft | 326 kts | 346° |
| 2026-04-29 15:01 | 53.01451 | -75.37705 | 27662 ft | 325 kts | 346° |
| 2026-04-29 15:02 | 53.03680 | -75.38336 | 27666 ft | 325 kts | 346° |
| 2026-04-29 15:02 | 53.05906 | -75.38966 | 27661 ft | 325 kts | 346° |
| 2026-04-29 15:02 | 53.08133 | -75.39597 | 27664 ft | 324 kts | 346° |
| 2026-04-29 15:02 | 53.10365 | -75.40229 | 27659 ft | 324 kts | 346° |
| 2026-04-29 15:03 | 53.12590 | -75.40861 | 27658 ft | 324 kts | 346° |
| 2026-04-29 15:03 | 53.14817 | -75.41495 | 27654 ft | 324 kts | 346° |
| 2026-04-29 15:03 | 53.17015 | -75.42120 | 27649 ft | 324 kts | 346° |
| 2026-04-29 15:03 | 53.19265 | -75.42760 | 27652 ft | 324 kts | 346° |
| 2026-04-29 15:04 | 53.21463 | -75.43387 | 27645 ft | 324 kts | 346° |
| 2026-04-29 15:04 | 53.23686 | -75.44022 | 27646 ft | 324 kts | 346° |
| 2026-04-29 15:04 | 53.25906 | -75.44657 | 27644 ft | 324 kts | 346° |
| 2026-04-29 15:04 | 53.28127 | -75.45291 | 27644 ft | 324 kts | 346° |
| 2026-04-29 15:05 | 53.30348 | -75.45927 | 27640 ft | 324 kts | 346° |
| 2026-04-29 15:05 | 53.32570 | -75.46564 | 27638 ft | 323 kts | 346° |
| 2026-04-29 15:05 | 53.34787 | -75.47200 | 27636 ft | 323 kts | 346° |
| 2026-04-29 15:05 | 53.37006 | -75.47837 | 27634 ft | 323 kts | 346° |
| 2026-04-29 15:06 | 53.39222 | -75.48474 | 27631 ft | 323 kts | 346° |
| 2026-04-29 15:06 | 53.41446 | -75.49115 | 27629 ft | 323 kts | 346° |
| 2026-04-29 15:06 | 53.43662 | -75.49753 | 27627 ft | 323 kts | 346° |
| 2026-04-29 15:06 | 53.45879 | -75.50393 | 27631 ft | 323 kts | 346° |
| 2026-04-29 15:07 | 53.48062 | -75.51023 | 27623 ft | 323 kts | 346° |
| 2026-04-29 15:07 | 53.50277 | -75.51664 | 27624 ft | 322 kts | 346° |
| 2026-04-29 15:07 | 53.52490 | -75.52304 | 27620 ft | 322 kts | 346° |
| 2026-04-29 15:07 | 53.54701 | -75.52944 | 27620 ft | 322 kts | 346° |
| 2026-04-29 15:08 | 53.56909 | -75.53584 | 27624 ft | 322 kts | 347° |
| 2026-04-29 15:08 | 53.59125 | -75.54228 | 27621 ft | 322 kts | 347° |
| 2026-04-29 15:08 | 53.61337 | -75.54871 | 27622 ft | 323 kts | 347° |
| 2026-04-29 15:08 | 53.63556 | -75.55516 | 27611 ft | 324 kts | 347° |
| 2026-04-29 15:09 | 53.65778 | -75.56163 | 27608 ft | 323 kts | 347° |
| 2026-04-29 15:09 | 53.67994 | -75.56808 | 27613 ft | 323 kts | 347° |
| 2026-04-29 15:09 | 53.70209 | -75.57454 | 27613 ft | 322 kts | 347° |
| 2026-04-29 15:09 | 53.72391 | -75.58092 | 27606 ft | 322 kts | 347° |
| 2026-04-29 15:10 | 53.74626 | -75.58744 | 27609 ft | 322 kts | 347° |
| 2026-04-29 15:10 | 53.76806 | -75.59383 | 27607 ft | 321 kts | 347° |
| 2026-04-29 15:10 | 53.79008 | -75.60028 | 27605 ft | 321 kts | 347° |
| 2026-04-29 15:10 | 53.81212 | -75.60674 | 27606 ft | 321 kts | 347° |
| 2026-04-29 15:11 | 53.83409 | -75.61320 | 27609 ft | 321 kts | 347° |
| 2026-04-29 15:11 | 53.85608 | -75.61968 | 27606 ft | 320 kts | 347° |
| 2026-04-29 15:11 | 53.87806 | -75.62615 | 27605 ft | 320 kts | 347° |
| 2026-04-29 15:11 | 53.90006 | -75.63263 | 27597 ft | 320 kts | 347° |
| 2026-04-29 15:12 | 53.92201 | -75.63910 | 27603 ft | 320 kts | 347° |
| 2026-04-29 15:12 | 53.93654 | -75.64338 | 27600 ft | 320 kts | 347° |
| 2026-04-29 15:12 | 53.96597 | -75.65208 | 27600 ft | 320 kts | 347° |
| 2026-04-29 15:12 | 53.98768 | -75.65850 | 27599 ft | 320 kts | 347° |
| 2026-04-29 15:13 | 54.00958 | -75.66499 | 27603 ft | 320 kts | 347° |
| 2026-04-29 15:13 | 54.03153 | -75.67150 | 27601 ft | 320 kts | 347° |
| 2026-04-29 15:13 | 54.05343 | -75.67801 | 27601 ft | 320 kts | 347° |
| 2026-04-29 15:13 | 54.07541 | -75.68454 | 27600 ft | 320 kts | 347° |
| 2026-04-29 15:14 | 54.09732 | -75.69106 | 27600 ft | 320 kts | 347° |
| 2026-04-29 15:14 | 54.11930 | -75.69760 | 27598 ft | 320 kts | 347° |
| 2026-04-29 15:14 | 54.14122 | -75.70412 | 27592 ft | 320 kts | 347° |
| 2026-04-29 15:14 | 54.16317 | -75.71068 | 27594 ft | 320 kts | 347° |
| 2026-04-29 15:15 | 54.18516 | -75.71725 | 27590 ft | 320 kts | 347° |
| 2026-04-29 15:15 | 54.20682 | -75.72372 | 27588 ft | 320 kts | 347° |
| 2026-04-29 15:15 | 54.22875 | -75.73030 | 27586 ft | 320 kts | 347° |
| 2026-04-29 15:15 | 54.25071 | -75.73688 | 27591 ft | 320 kts | 347° |
| 2026-04-29 15:16 | 54.27261 | -75.74345 | 27589 ft | 320 kts | 347° |
| 2026-04-29 15:16 | 54.29450 | -75.75003 | 27591 ft | 319 kts | 347° |
| 2026-04-29 15:16 | 54.31639 | -75.75661 | 27586 ft | 319 kts | 347° |
| 2026-04-29 15:16 | 54.33829 | -75.76320 | 27589 ft | 319 kts | 347° |
| 2026-04-29 15:17 | 54.36015 | -75.76978 | 27589 ft | 319 kts | 347° |
| 2026-04-29 15:17 | 54.38202 | -75.77638 | 27586 ft | 319 kts | 347° |
| 2026-04-29 15:17 | 54.40391 | -75.78299 | 27583 ft | 319 kts | 347° |
| 2026-04-29 15:17 | 54.41838 | -75.78736 | 27584 ft | 319 kts | 347° |
| 2026-04-29 15:18 | 54.44760 | -75.79620 | 27586 ft | 319 kts | 347° |
| 2026-04-29 15:18 | 54.46945 | -75.80283 | 27578 ft | 319 kts | 347° |
| 2026-04-29 15:18 | 54.49105 | -75.80938 | 27578 ft | 319 kts | 347° |
| 2026-04-29 15:18 | 54.51315 | -75.81608 | 27579 ft | 318 kts | 347° |
| 2026-04-29 15:19 | 54.53499 | -75.82272 | 27580 ft | 318 kts | 347° |
| 2026-04-29 15:19 | 54.55650 | -75.82928 | 27576 ft | 318 kts | 347° |
| 2026-04-29 15:19 | 54.57829 | -75.83592 | 27576 ft | 318 kts | 347° |
| 2026-04-29 15:19 | 54.60008 | -75.84256 | 27573 ft | 318 kts | 347° |
| 2026-04-29 15:20 | 54.62193 | -75.84923 | 27571 ft | 318 kts | 347° |
| 2026-04-29 15:20 | 54.64373 | -75.85589 | 27572 ft | 318 kts | 347° |
| 2026-04-29 15:20 | 54.66551 | -75.86254 | 27572 ft | 318 kts | 347° |
| 2026-04-29 15:20 | 54.68729 | -75.86923 | 27574 ft | 318 kts | 347° |
| 2026-04-29 15:21 | 54.70909 | -75.87594 | 27569 ft | 318 kts | 347° |
| 2026-04-29 15:21 | 54.73087 | -75.88262 | 27567 ft | 318 kts | 347° |
| 2026-04-29 15:21 | 54.74528 | -75.88704 | 27570 ft | 318 kts | 347° |
| 2026-04-29 15:21 | 54.76706 | -75.89372 | 27565 ft | 318 kts | 347° |
| 2026-04-29 15:22 | 54.79589 | -75.90261 | 27562 ft | 317 kts | 347° |
| 2026-04-29 15:22 | 54.81762 | -75.90933 | 27563 ft | 317 kts | 347° |
| 2026-04-29 15:22 | 54.83938 | -75.91604 | 27566 ft | 317 kts | 347° |
| 2026-04-29 15:22 | 54.86121 | -75.92278 | 27428 ft | 321 kts | 347° |
| 2026-04-29 15:23 | 54.87594 | -75.92734 | 27271 ft | 326 kts | 347° |
| 2026-04-29 15:23 | 54.89839 | -75.93431 | 27030 ft | 330 kts | 347° |
| 2026-04-29 15:23 | 54.92103 | -75.94130 | 26787 ft | 330 kts | 347° |
| 2026-04-29 15:23 | 54.94367 | -75.94830 | 26547 ft | 330 kts | 347° |
| 2026-04-29 15:24 | 54.96629 | -75.95532 | 26320 ft | 331 kts | 347° |
| 2026-04-29 15:24 | 54.98897 | -75.96236 | 26083 ft | 330 kts | 348° |
| 2026-04-29 15:24 | 55.01165 | -75.96905 | 25857 ft | 331 kts | 349° |
| 2026-04-29 15:24 | 55.03453 | -75.97406 | 25630 ft | 331 kts | 352° |
| 2026-04-29 15:25 | 55.05747 | -75.97830 | 25426 ft | 331 kts | 352° |
| 2026-04-29 15:25 | 55.08035 | -75.98245 | 25333 ft | 330 kts | 352° |
| 2026-04-29 15:25 | 55.10318 | -75.98671 | 25233 ft | 330 kts | 352° |
| 2026-04-29 15:25 | 55.12596 | -75.99106 | 25134 ft | 329 kts | 352° |
| 2026-04-29 15:26 | 55.14876 | -75.99553 | 25031 ft | 329 kts | 352° |
| 2026-04-29 15:26 | 55.17155 | -76.00013 | 24929 ft | 329 kts | 352° |
| 2026-04-29 15:26 | 55.19395 | -76.00468 | 24825 ft | 329 kts | 352° |
| 2026-04-29 15:26 | 55.21678 | -76.00937 | 24672 ft | 330 kts | 351° |
| 2026-04-29 15:27 | 55.23960 | -76.01404 | 24526 ft | 330 kts | 352° |
| 2026-04-29 15:27 | 55.26242 | -76.01873 | 24377 ft | 330 kts | 352° |
| 2026-04-29 15:27 | 55.28521 | -76.02340 | 24235 ft | 330 kts | 352° |
| 2026-04-29 15:27 | 55.30804 | -76.02807 | 24087 ft | 330 kts | 352° |
| 2026-04-29 15:28 | 55.33089 | -76.03277 | 23943 ft | 330 kts | 352° |
| 2026-04-29 15:28 | 55.34599 | -76.03589 | 23843 ft | 330 kts | 352° |
| 2026-04-29 15:28 | 55.37658 | -76.04219 | 23659 ft | 330 kts | 352° |
| 2026-04-29 15:28 | 55.39913 | -76.04682 | 23517 ft | 331 kts | 352° |
| 2026-04-29 15:29 | 55.42202 | -76.05157 | 23372 ft | 331 kts | 352° |
| 2026-04-29 15:29 | 55.46774 | -76.06103 | 23092 ft | 331 kts | 352° |
| 2026-04-29 15:30 | 55.51359 | -76.07055 | 22759 ft | 332 kts | 352° |
| 2026-04-29 15:30 | 55.53650 | -76.07532 | 22599 ft | 332 kts | 352° |
| 2026-04-29 15:30 | 55.55945 | -76.08011 | 22429 ft | 332 kts | 352° |
| 2026-04-29 15:30 | 55.58212 | -76.08491 | 22255 ft | 332 kts | 352° |
| 2026-04-29 15:31 | 55.60511 | -76.08976 | 22099 ft | 332 kts | 352° |
| 2026-04-29 15:31 | 55.62805 | -76.09450 | 21941 ft | 332 kts | 352° |
| 2026-04-29 15:31 | 55.65095 | -76.09924 | 21775 ft | 330 kts | 352° |
| 2026-04-29 15:31 | 55.67373 | -76.10402 | 21447 ft | 332 kts | 352° |
| 2026-04-29 15:32 | 55.69690 | -76.10889 | 20964 ft | 337 kts | 352° |
| 2026-04-29 15:32 | 55.72033 | -76.11380 | 20492 ft | 339 kts | 352° |
| 2026-04-29 15:32 | 55.74379 | -76.11874 | 20034 ft | 340 kts | 352° |
| 2026-04-29 15:32 | 55.76736 | -76.12368 | 19586 ft | 341 kts | 352° |
| 2026-04-29 15:33 | 55.79097 | -76.12861 | 19138 ft | 343 kts | 352° |
| 2026-04-29 15:33 | 55.81471 | -76.13366 | 18698 ft | 344 kts | 352° |
| 2026-04-29 15:33 | 55.83848 | -76.13874 | 18272 ft | 345 kts | 352° |
| 2026-04-29 15:33 | 55.86238 | -76.14377 | 17844 ft | 346 kts | 353° |
| 2026-04-29 15:34 | 55.88628 | -76.14877 | 17363 ft | 346 kts | 353° |
| 2026-04-29 15:34 | 55.90988 | -76.15378 | 16890 ft | 346 kts | 353° |
| 2026-04-29 15:34 | 55.93380 | -76.15884 | 16420 ft | 345 kts | 353° |
| 2026-04-29 15:34 | 55.95740 | -76.16389 | 15939 ft | 336 kts | 353° |
| 2026-04-29 15:35 | 55.98028 | -76.16883 | 15468 ft | 327 kts | 353° |
| 2026-04-29 15:35 | 56.00259 | -76.17367 | 15010 ft | 320 kts | 353° |
| 2026-04-29 15:35 | 56.02451 | -76.17841 | 14559 ft | 314 kts | 353° |
| 2026-04-29 15:35 | 56.04606 | -76.18306 | 14118 ft | 310 kts | 353° |
| 2026-04-29 15:36 | 56.06736 | -76.18763 | 13680 ft | 307 kts | 353° |
| 2026-04-29 15:36 | 56.08847 | -76.19219 | 13242 ft | 304 kts | 353° |
| 2026-04-29 15:36 | 56.10938 | -76.19670 | 12757 ft | 301 kts | 353° |
| 2026-04-29 15:36 | 56.13013 | -76.20115 | 12280 ft | 299 kts | 353° |
| 2026-04-29 15:37 | 56.15051 | -76.20556 | 11811 ft | 298 kts | 353° |
| 2026-04-29 15:37 | 56.17136 | -76.21003 | 11344 ft | 297 kts | 353° |
| 2026-04-29 15:37 | 56.19157 | -76.21439 | 10891 ft | 296 kts | 353° |
| 2026-04-29 15:37 | 56.21197 | -76.21877 | 10441 ft | 295 kts | 353° |
| 2026-04-29 15:38 | 56.23239 | -76.22319 | 9991 ft | 295 kts | 353° |
| 2026-04-29 15:38 | 56.25273 | -76.22761 | 9558 ft | 294 kts | 353° |
| 2026-04-29 15:38 | 56.27305 | -76.23201 | 9084 ft | 293 kts | 353° |
| 2026-04-29 15:38 | 56.29327 | -76.23638 | 8601 ft | 292 kts | 353° |
| 2026-04-29 15:39 | 56.31344 | -76.24075 | 8127 ft | 291 kts | 352° |
| 2026-04-29 15:39 | 56.33351 | -76.24511 | 7663 ft | 290 kts | 352° |
| 2026-04-29 15:39 | 56.35348 | -76.24944 | 7199 ft | 288 kts | 352° |
| 2026-04-29 15:39 | 56.37336 | -76.25376 | 6743 ft | 286 kts | 352° |
| 2026-04-29 15:40 | 56.39284 | -76.25799 | 6298 ft | 285 kts | 352° |
| 2026-04-29 15:40 | 56.41246 | -76.26228 | 5851 ft | 283 kts | 352° |
| 2026-04-29 15:40 | 56.43182 | -76.26651 | 5506 ft | 277 kts | 352° |
| 2026-04-29 15:40 | 56.45081 | -76.27067 | 5195 ft | 272 kts | 352° |
| 2026-04-29 15:41 | 56.46952 | -76.27479 | 4888 ft | 269 kts | 352° |
| 2026-04-29 15:41 | 56.48803 | -76.27885 | 4563 ft | 267 kts | 352° |
| 2026-04-29 15:41 | 56.50639 | -76.28288 | 4267 ft | 265 kts | 352° |
| 2026-04-29 15:41 | 56.52462 | -76.28686 | 3946 ft | 263 kts | 352° |
| 2026-04-29 15:42 | 56.54274 | -76.29085 | 3631 ft | 262 kts | 352° |
| 2026-04-29 15:42 | 56.56084 | -76.29485 | 3327 ft | 261 kts | 352° |
| 2026-04-29 15:42 | 56.57883 | -76.29880 | 3015 ft | 261 kts | 352° |
| 2026-04-29 15:42 | 56.59683 | -76.30273 | 2704 ft | 260 kts | 352° |
| 2026-04-29 15:43 | 56.61479 | -76.30671 | 2407 ft | 260 kts | 352° |
| 2026-04-29 15:43 | 56.63274 | -76.31072 | 2181 ft | 260 kts | 353° |
| 2026-04-29 15:43 | 56.65051 | -76.31467 | 2204 ft | 253 kts | 353° |
| 2026-04-29 15:43 | 56.66789 | -76.31848 | 2243 ft | 249 kts | 352° |
| 2026-04-29 15:44 | 56.68501 | -76.32229 | 2195 ft | 246 kts | 352° |
| 2026-04-29 15:44 | 56.70100 | -76.33069 | 2138 ft | 241 kts | 330° |
| 2026-04-29 15:44 | 56.71349 | -76.34995 | 2106 ft | 234 kts | 306° |
| 2026-04-29 15:44 | 56.72110 | -76.37573 | 2084 ft | 231 kts | 286° |
| 2026-04-29 15:45 | 56.72363 | -76.40378 | 1973 ft | 220 kts | 273° |
| 2026-04-29 15:45 | 56.72490 | -76.43099 | 1940 ft | 209 kts | 266° |
| 2026-04-29 15:45 | 56.72127 | -76.45567 | 1915 ft | 198 kts | 238° |
| 2026-04-29 15:45 | 56.71256 | -76.47408 | 1876 ft | 188 kts | 216° |
| 2026-04-29 15:46 | 56.70129 | -76.48462 | 1876 ft | 179 kts | 195° |
| 2026-04-29 15:46 | 56.68931 | -76.48765 | 1877 ft | 167 kts | 185° |
| 2026-04-29 15:46 | 56.67818 | -76.48997 | 1876 ft | 156 kts | 187° |
| 2026-04-29 15:46 | 56.66763 | -76.49238 | 1878 ft | 150 kts | 186° |
| 2026-04-29 15:47 | 56.65744 | -76.49432 | 1879 ft | 145 kts | 185° |
| 2026-04-29 15:47 | 56.64750 | -76.49622 | 1884 ft | 143 kts | 185° |
| 2026-04-29 15:47 | 56.63782 | -76.49813 | 1953 ft | 137 kts | 186° |
| 2026-04-29 15:47 | 56.62878 | -76.49987 | 2111 ft | 133 kts | 186° |
| 2026-04-29 15:48 | 56.61908 | -76.50183 | 1926 ft | 144 kts | 186° |
| 2026-04-29 15:48 | 56.60953 | -76.50374 | 1714 ft | 131 kts | 185° |
| 2026-04-29 15:48 | 56.60065 | -76.50534 | 1532 ft | 126 kts | 185° |
| 2026-04-29 15:48 | 56.59193 | -76.50733 | 1344 ft | 127 kts | 186° |
| 2026-04-29 15:49 | 56.58309 | -76.50931 | 1149 ft | 129 kts | 183° |
| 2026-04-29 15:49 | 56.57425 | -76.51070 | 955 ft | 123 kts | 182° |
| 2026-04-29 15:49 | 56.56616 | -76.51218 | 777 ft | 112 kts | 183° |
| 2026-04-29 15:49 | 56.55861 | -76.51370 | 632 ft | 106 kts | 184° |
| 2026-04-29 15:50 | 56.55145 | -76.51520 | 492 ft | 102 kts | 182° |
| 2026-04-29 15:50 | 56.54461 | -76.51661 | 365 ft | 98 kts | 185° |
| 2026-04-29 15:50 | 56.53819 | -76.51781 | 271 ft | 73 kts | 183° |
| 2026-04-29 15:50 | 56.53617 | -76.51814 | 276 ft | 15 kts | 178° |
| 2026-04-29 15:51 | 56.53651 | -76.51826 | 276 ft | 11 kts | 7° |
| 2026-04-29 15:51 | 56.53733 | -76.51812 | 273 ft | 12 kts | 7° |
| 2026-04-29 15:51 | 56.53817 | -76.51801 | 271 ft | 11 kts | 5° |
| 2026-04-29 15:51 | 56.53886 | -76.51789 | 271 ft | 9 kts | 6° |
| 2026-04-29 15:52 | 56.53908 | -76.51845 | 269 ft | 9 kts | 274° |
| 2026-04-29 15:52 | 56.53900 | -76.51949 | 262 ft | 5 kts | 242° |
| 2026-04-29 15:52 | 56.53911 | -76.51988 | 262 ft | 4 kts | 359° |
| 2026-04-29 15:52 | 56.53912 | -76.51988 | 262 ft | 0 kts | 358° |